createdAt,value
2022-08-14T00:01:24.060Z,64.35
2022-08-14T00:03:50.942Z,64.79
2022-08-14T00:06:29.143Z,64.33
2022-08-14T00:08:59.265Z,64.30
2022-08-14T00:11:28.731Z,66.21
2022-08-14T00:14:01.370Z,65.45
2022-08-14T00:16:41.627Z,65.40
2022-08-14T00:19:19.746Z,66.29
2022-08-14T00:21:52.406Z,66.65
2022-08-14T00:24:28.120Z,65.86
2022-08-14T00:26:57.137Z,65.33
2022-08-14T00:29:25.254Z,66.44
2022-08-14T00:31:55.970Z,66.70
2022-08-14T00:34:36.031Z,66.08
2022-08-14T00:37:11.213Z,66.86
2022-08-14T00:39:39.409Z,66.61
2022-08-14T00:42:07.482Z,66.42
2022-08-14T00:44:48.770Z,66.41
2022-08-14T00:47:16.926Z,66.80
2022-08-14T00:49:45.437Z,66.37
2022-08-14T00:52:17.827Z,66.76
2022-08-14T00:54:46.432Z,67.47
2022-08-14T00:57:13.536Z,66.56
2022-08-14T00:59:41.265Z,66.68
2022-08-14T01:02:09.389Z,67.87
2022-08-14T01:04:54.055Z,67.39
2022-08-14T01:07:22.817Z,68.23
2022-08-14T01:10:07.854Z,68.50
2022-08-14T01:12:40.505Z,68.58
2022-08-14T01:15:09.440Z,69.06
2022-08-14T01:17:54.974Z,69.71
2022-08-14T01:20:40.851Z,70.34
2022-08-14T01:23:16.219Z,70.34
2022-08-14T01:25:47.840Z,71.08
2022-08-14T01:28:46.230Z,70.82
2022-08-14T01:31:01.915Z,71.53
2022-08-14T01:33:29.951Z,72.66
2022-08-14T01:36:05.464Z,71.93
2022-08-14T01:38:37.367Z,72.70
2022-08-14T01:41:15.375Z,72.37
2022-08-14T01:43:56.762Z,72.76
2022-08-14T01:46:25.159Z,73.38
2022-08-14T01:49:02.108Z,73.23
2022-08-14T01:51:30.603Z,72.85
2022-08-14T01:54:05.819Z,73.55
2022-08-14T01:56:37.492Z,74.35
2022-08-14T01:59:22.197Z,74.22
2022-08-14T02:01:59.103Z,73.70
2022-08-14T02:04:55.094Z,74.01
2022-08-14T02:07:34.807Z,73.87
2022-08-14T02:10:13.032Z,73.96
2022-08-14T02:12:49.034Z,74.50
2022-08-14T02:15:21.784Z,74.70
2022-08-14T02:17:49.998Z,73.57
2022-08-14T02:20:17.834Z,74.05
2022-08-14T02:22:52.133Z,74.88
2022-08-14T02:25:21.184Z,74.39
2022-08-14T02:28:25.655Z,74.02
2022-08-14T02:30:38.338Z,74.84
2022-08-14T02:33:05.706Z,75.17
2022-08-14T02:35:32.605Z,75.13
2022-08-14T02:37:59.639Z,75.52
2022-08-14T02:40:32.072Z,76.54
2022-08-14T02:43:02.497Z,75.82
2022-08-14T02:45:38.671Z,75.85
2022-08-14T02:49:01.405Z,75.68
2022-08-14T02:51:00.898Z,75.42
2022-08-14T02:53:29.481Z,75.59
2022-08-14T02:56:03.189Z,75.96
2022-08-14T02:58:32.232Z,76.59
2022-08-14T03:00:59.962Z,75.85
2022-08-14T03:03:28.741Z,76.11
2022-08-14T03:06:00.325Z,76.59
2022-08-14T03:08:31.673Z,76.61
2022-08-14T03:11:07.620Z,77.25
2022-08-14T03:13:35.846Z,76.58
2022-08-14T03:16:09.251Z,77.07
2022-08-14T03:18:52.580Z,77.18
2022-08-14T03:21:22.337Z,77.49
2022-08-14T03:24:21.337Z,77.97
2022-08-14T03:26:49.811Z,78.51
2022-08-14T03:29:24.522Z,78.22
2022-08-14T03:31:52.881Z,78.78
2022-08-14T03:34:24.695Z,78.58
2022-08-14T03:37:51.989Z,78.18
2022-08-14T03:39:53.590Z,79.37
2022-08-14T03:42:20.088Z,79.17
2022-08-14T03:45:18.535Z,79.11
2022-08-14T03:47:53.385Z,80.31
2022-08-14T03:50:30.716Z,80.03
2022-08-14T03:53:02.355Z,80.03
2022-08-14T03:55:30.293Z,80.94
2022-08-14T03:57:57.957Z,81.23
2022-08-14T04:00:43.530Z,81.33
2022-08-14T04:03:23.595Z,81.14
2022-08-14T04:05:51.553Z,81.74
2022-08-14T04:08:29.067Z,82.14
2022-08-14T04:10:58.421Z,82.33
2022-08-14T04:13:25.097Z,81.74
2022-08-14T04:16:01.097Z,83.05
2022-08-14T04:18:29.822Z,84.00
2022-08-14T04:20:58.068Z,84.78
2022-08-14T04:23:29.911Z,84.31
2022-08-14T04:26:00.990Z,84.79
2022-08-14T04:29:08.217Z,85.83
2022-08-14T04:31:16.433Z,84.51
2022-08-14T04:33:42.959Z,84.56
2022-08-14T04:36:15.959Z,83.29
2022-08-14T04:39:03.015Z,85.87
2022-08-14T04:41:48.522Z,84.58
2022-08-14T04:44:35.819Z,83.47
2022-08-14T04:47:21.668Z,83.85
2022-08-14T04:49:57.072Z,85.05
2022-08-14T04:52:24.734Z,85.85
2022-08-14T04:54:51.507Z,85.57
2022-08-14T04:57:17.991Z,86.73
2022-08-14T04:59:45.906Z,85.65
2022-08-14T05:02:13.735Z,86.05
2022-08-14T05:04:45.400Z,86.90
2022-08-14T05:07:46.425Z,86.76
2022-08-14T05:10:16.394Z,86.83
2022-08-14T05:13:11.149Z,87.44
2022-08-14T05:15:37.375Z,86.72
2022-08-14T05:18:17.794Z,87.15
2022-08-14T05:21:56.396Z,86.83
2022-08-14T05:23:48.296Z,87.32
2022-08-14T05:26:14.849Z,87.56
2022-08-14T05:28:46.339Z,88.74
2022-08-14T05:31:20.768Z,89.16
2022-08-14T05:33:54.653Z,89.57
2022-08-14T05:36:23.835Z,91.01
2022-08-14T05:38:50.995Z,91.31
2022-08-14T05:41:20.019Z,90.45
2022-08-14T05:43:51.175Z,91.70
2022-08-14T05:46:22.831Z,91.04
2022-08-14T05:48:53.148Z,91.24
2022-08-14T05:51:20.984Z,90.77
2022-08-14T05:53:59.970Z,90.64
2022-08-14T05:56:29.063Z,90.62
2022-08-14T05:58:55.911Z,91.31
2022-08-14T06:01:23.509Z,90.90
2022-08-14T06:03:50.469Z,91.24
2022-08-14T06:06:21.098Z,91.99
2022-08-14T06:08:47.688Z,91.28
2022-08-14T06:11:20.403Z,91.47
2022-08-14T06:13:57.449Z,92.61
2022-08-14T06:16:23.947Z,92.48
2022-08-14T06:18:52.366Z,92.00
2022-08-14T06:21:22.893Z,90.94
2022-08-14T06:23:49.924Z,90.78
2022-08-14T06:26:20.734Z,90.08
2022-08-14T06:28:52.500Z,89.37
2022-08-14T06:31:19.738Z,87.38
2022-08-14T06:35:11.364Z,86.94
2022-08-14T06:36:33.580Z,86.31
2022-08-14T06:39:00.191Z,85.97
2022-08-14T06:41:58.390Z,85.60
2022-08-14T06:44:15.081Z,84.71
2022-08-14T06:46:42.628Z,83.28
2022-08-14T06:49:16.016Z,84.07
2022-08-14T06:51:46.698Z,83.66
2022-08-14T06:54:16.731Z,83.89
2022-08-14T06:56:44.428Z,83.55
2022-08-14T06:59:20.703Z,84.55
2022-08-14T07:02:07.233Z,83.74
2022-08-14T07:04:58.627Z,82.52
2022-08-14T07:07:25.202Z,82.76
2022-08-14T07:09:55.483Z,82.84
2022-08-14T07:12:34.860Z,82.89
2022-08-14T07:15:09.217Z,82.78
2022-08-14T07:17:44.831Z,80.02
2022-08-14T07:20:11.544Z,80.83
2022-08-14T07:22:56.143Z,82.29
2022-08-14T07:25:32.228Z,82.45
2022-08-14T07:28:00.354Z,81.93
2022-08-14T07:30:34.514Z,81.76
2022-08-14T07:33:01.876Z,80.68
2022-08-14T07:35:30.389Z,80.13
2022-08-14T07:38:18.221Z,79.44
2022-08-14T07:40:48.321Z,79.66
2022-08-14T07:43:20.202Z,78.95
2022-08-14T07:45:47.956Z,77.56
2022-08-14T07:48:17.701Z,76.57
2022-08-14T07:50:50.581Z,76.08
2022-08-14T07:53:19.338Z,76.56
2022-08-14T07:55:46.609Z,77.62
2022-08-14T07:58:34.235Z,76.23
2022-08-14T08:01:07.374Z,77.47
2022-08-14T08:03:42.249Z,77.25
2022-08-14T08:06:17.518Z,77.24
2022-08-14T08:09:01.130Z,77.06
2022-08-14T08:11:37.100Z,77.35
2022-08-14T08:14:10.886Z,75.57
2022-08-14T08:16:46.454Z,75.01
2022-08-14T08:19:14.375Z,75.51
2022-08-14T08:21:43.861Z,75.49
2022-08-14T08:24:15.013Z,74.13
2022-08-14T08:26:45.315Z,75.02
2022-08-14T08:29:20.171Z,74.75
2022-08-14T08:31:52.718Z,74.92
2022-08-14T08:34:20.811Z,73.09
2022-08-14T08:36:51.031Z,73.22
2022-08-14T08:39:22.473Z,74.34
2022-08-14T08:41:53.155Z,73.99
2022-08-14T08:44:32.883Z,73.51
2022-08-14T08:47:05.557Z,73.73
2022-08-14T08:49:43.267Z,73.60
2022-08-14T08:52:25.509Z,73.80
2022-08-14T08:54:56.159Z,74.56
2022-08-14T08:57:24.227Z,73.95
2022-08-14T08:59:54.928Z,72.95
2022-08-14T09:02:22.651Z,73.20
2022-08-14T09:05:01.895Z,72.92
2022-08-14T09:07:28.446Z,71.30
2022-08-14T09:09:58.500Z,71.87
2022-08-14T09:12:31.466Z,71.61
2022-08-14T09:15:08.996Z,70.85
2022-08-14T09:17:41.283Z,70.08
2022-08-14T09:20:11.778Z,71.07
2022-08-14T09:22:47.694Z,72.49
2022-08-14T09:25:16.508Z,71.33
2022-08-14T09:27:43.581Z,70.32
2022-08-14T09:30:30.646Z,70.30
2022-08-14T09:33:09.235Z,68.23
2022-08-14T09:35:57.522Z,65.85
2022-08-14T09:38:40.548Z,66.12
2022-08-14T09:41:10.116Z,68.04
2022-08-14T09:43:51.752Z,67.76
2022-08-14T09:46:21.325Z,67.34
2022-08-14T09:49:02.904Z,68.18
2022-08-14T09:51:32.920Z,66.15
2022-08-14T09:54:19.662Z,66.22
2022-08-14T09:56:56.475Z,66.21
2022-08-14T09:59:27.980Z,65.07
2022-08-14T10:01:57.077Z,63.25
2022-08-14T10:04:34.233Z,61.57
2022-08-14T10:07:08.480Z,62.06
2022-08-14T10:09:59.647Z,63.35
2022-08-14T10:12:45.914Z,63.94
2022-08-14T10:15:18.440Z,63.07
2022-08-14T10:17:46.429Z,63.57
2022-08-14T10:20:40.671Z,64.21
2022-08-14T10:23:19.814Z,62.57
2022-08-14T10:25:51.252Z,61.32
2022-08-14T10:28:57.448Z,58.28
2022-08-14T10:31:29.582Z,55.42
2022-08-14T10:34:13.168Z,57.05
2022-08-14T10:36:47.818Z,58.91
2022-08-14T10:39:20.923Z,59.28
2022-08-14T10:41:53.774Z,56.36
2022-08-14T10:44:24.458Z,54.84
2022-08-14T10:47:40.340Z,54.87
2022-08-14T10:49:49.233Z,55.49
2022-08-14T10:52:23.495Z,57.44
2022-08-14T10:54:56.366Z,58.16
2022-08-14T10:57:28.023Z,57.30
2022-08-14T11:00:01.642Z,54.59
2022-08-14T11:02:44.808Z,55.35
2022-08-14T11:05:19.223Z,55.11
2022-08-14T11:07:55.444Z,55.33
2022-08-14T11:10:27.756Z,54.20
2022-08-14T11:12:57.793Z,51.96
2022-08-14T11:15:27.628Z,52.20
2022-08-14T11:17:56.481Z,51.75
2022-08-14T11:20:30.937Z,52.06
2022-08-14T11:22:59.595Z,52.02
2022-08-14T11:25:41.303Z,52.65
2022-08-14T11:28:14.847Z,53.61
2022-08-14T11:30:53.868Z,53.26
2022-08-14T11:33:29.352Z,53.98
2022-08-14T11:36:00.954Z,54.48
2022-08-14T11:38:35.598Z,54.70
2022-08-14T11:41:05.167Z,54.09
2022-08-14T11:43:56.203Z,55.84
2022-08-14T11:46:30.204Z,56.85
2022-08-14T11:49:05.643Z,57.34
2022-08-14T11:51:36.419Z,56.51
2022-08-14T11:54:34.461Z,52.45
2022-08-14T11:57:02.466Z,50.68
2022-08-14T11:59:33.586Z,53.17
2022-08-14T12:03:01.810Z,55.34
2022-08-14T12:05:00.903Z,52.51
2022-08-14T12:07:30.718Z,52.05
2022-08-14T12:09:59.383Z,52.67
2022-08-14T12:12:35.554Z,52.80
2022-08-14T12:15:13.840Z,53.78
2022-08-14T12:17:55.850Z,52.60
2022-08-14T12:20:33.337Z,49.07
2022-08-14T12:23:02.514Z,51.52
2022-08-14T12:25:34.465Z,55.37
2022-08-14T12:28:05.659Z,57.11
2022-08-14T12:30:39.874Z,55.59
2022-08-14T12:33:25.596Z,46.48
2022-08-14T12:35:56.436Z,48.11
2022-08-14T12:38:43.790Z,47.49
2022-08-14T12:41:27.807Z,49.24
2022-08-14T12:44:01.743Z,48.09
2022-08-14T12:46:37.612Z,49.02
2022-08-14T12:49:10.951Z,45.22
2022-08-14T12:51:37.592Z,47.86
2022-08-14T12:54:27.275Z,44.55
2022-08-14T12:57:14.608Z,48.02
2022-08-14T12:59:45.567Z,40.91
2022-08-14T13:02:26.951Z,42.85
2022-08-14T13:04:57.992Z,46.04
2022-08-14T13:07:32.847Z,42.56
2022-08-14T13:10:12.834Z,42.38
2022-08-14T13:13:12.074Z,42.75
2022-08-14T13:15:36.321Z,45.98
2022-08-14T13:18:04.859Z,45.90
2022-08-14T13:20:33.364Z,42.75
2022-08-14T13:23:02.321Z,43.71
2022-08-14T13:25:29.503Z,39.74
2022-08-14T13:27:59.059Z,39.75
2022-08-14T13:30:26.978Z,39.41
2022-08-14T13:32:58.036Z,42.03
2022-08-14T13:35:25.209Z,41.71
2022-08-14T13:37:52.305Z,40.07
2022-08-14T13:40:26.482Z,40.99
2022-08-14T13:42:56.663Z,39.70
2022-08-14T13:45:33.841Z,41.98
2022-08-14T13:48:27.456Z,42.32
2022-08-14T13:51:01.742Z,42.30
2022-08-14T13:53:33.256Z,42.23
2022-08-14T13:56:01.432Z,42.64
2022-08-14T13:58:34.603Z,41.10
2022-08-14T14:01:02.435Z,41.21
2022-08-14T14:03:38.013Z,41.94
2022-08-14T14:06:05.505Z,42.72
2022-08-14T14:08:46.429Z,41.52
2022-08-14T14:11:16.589Z,41.41
2022-08-14T14:13:48.417Z,42.38
2022-08-14T14:16:21.749Z,40.84
2022-08-14T14:19:08.713Z,40.00
2022-08-14T14:21:36.960Z,39.28
2022-08-14T14:24:05.944Z,40.37
2022-08-14T14:26:35.976Z,40.64
2022-08-14T14:29:06.402Z,41.94
2022-08-14T14:31:36.589Z,43.58
2022-08-14T14:34:07.365Z,40.65
2022-08-14T14:36:52.774Z,43.69
2022-08-14T14:39:27.393Z,43.64
2022-08-14T14:41:59.540Z,45.71
2022-08-14T14:44:41.183Z,43.86
2022-08-14T14:47:13.974Z,42.55
2022-08-14T14:49:54.759Z,41.99
2022-08-14T14:52:27.778Z,43.37
2022-08-14T14:54:58.972Z,40.84
2022-08-14T14:57:34.780Z,42.68
2022-08-14T15:00:02.213Z,42.57
2022-08-14T15:02:34.732Z,43.03
2022-08-14T15:05:05.039Z,42.97
2022-08-14T15:07:32.511Z,43.96
2022-08-14T15:10:00.232Z,43.88
2022-08-14T15:12:55.298Z,44.30
2022-08-14T15:15:14.753Z,42.82
2022-08-14T15:17:43.119Z,41.09
2022-08-14T15:20:17.495Z,41.48
2022-08-14T15:22:57.122Z,40.31
2022-08-14T15:25:23.625Z,40.15
2022-08-14T15:27:54.359Z,42.17
2022-08-14T15:30:23.907Z,43.92
2022-08-14T15:32:51.264Z,41.99
2022-08-14T15:35:22.419Z,41.58
2022-08-14T15:37:49.986Z,40.92
2022-08-14T15:40:22.832Z,39.84
2022-08-14T15:42:49.508Z,41.22
2022-08-14T15:45:17.143Z,41.55
2022-08-14T15:47:43.824Z,41.93
2022-08-14T15:50:10.444Z,41.52
2022-08-14T15:52:37.614Z,39.73
2022-08-14T15:55:10.438Z,39.90
2022-08-14T15:57:39.929Z,40.49
2022-08-14T16:00:50.040Z,43.71
2022-08-14T16:03:18.466Z,40.92
2022-08-14T16:05:54.143Z,42.62
2022-08-14T16:08:29.180Z,44.50
2022-08-14T16:10:59.767Z,40.92
2022-08-14T16:13:39.378Z,43.27
2022-08-14T16:16:49.339Z,41.27
2022-08-14T16:19:07.538Z,43.71
2022-08-14T16:21:39.700Z,46.61
2022-08-14T16:24:06.551Z,47.74
2022-08-14T16:26:34.863Z,42.67
2022-08-14T16:29:04.445Z,47.04
2022-08-14T16:31:35.708Z,51.16
2022-08-14T16:34:44.256Z,51.18
2022-08-14T16:36:57.142Z,52.57
2022-08-14T16:39:24.699Z,53.15
2022-08-14T16:41:52.576Z,52.57
2022-08-14T16:44:31.988Z,53.54
2022-08-14T16:47:02.663Z,52.89
2022-08-14T16:50:03.262Z,53.07
2022-08-14T16:52:26.142Z,54.97
2022-08-14T16:55:11.218Z,55.21
2022-08-14T16:57:54.937Z,52.16
2022-08-14T17:00:43.033Z,53.60
2022-08-14T17:03:12.052Z,54.45
2022-08-14T17:05:47.024Z,55.78
2022-08-14T17:08:33.450Z,55.40
2022-08-14T17:11:10.707Z,55.72
2022-08-14T17:13:58.754Z,55.73
2022-08-14T17:16:37.036Z,57.81
2022-08-14T17:19:13.491Z,57.46
2022-08-14T17:21:41.924Z,58.52
2022-08-14T17:24:56.837Z,60.75
2022-08-14T17:26:59.951Z,59.46
2022-08-14T17:29:34.183Z,58.71
2022-08-14T17:32:22.147Z,59.30
2022-08-14T17:37:45.820Z,57.17
2022-08-14T17:40:20.777Z,55.30
2022-08-14T17:42:53.363Z,54.88
2022-08-14T17:45:43.211Z,54.58
2022-08-14T17:49:13.998Z,55.04
2022-08-14T17:51:15.292Z,55.55
2022-08-14T17:53:53.394Z,55.78
2022-08-14T17:56:31.749Z,55.82
2022-08-14T17:59:05.334Z,56.06
2022-08-14T18:01:37.395Z,56.31
2022-08-14T18:04:28.579Z,56.50
2022-08-14T18:07:06.202Z,56.53
2022-08-14T18:09:57.422Z,56.94
2022-08-14T18:12:32.863Z,58.08
2022-08-14T18:15:14.341Z,57.39
2022-08-14T18:17:54.263Z,57.32
2022-08-14T18:21:42.104Z,56.88
2022-08-14T18:23:13.052Z,57.26
2022-08-14T18:25:47.181Z,57.87
2022-08-14T18:28:19.165Z,58.04
2022-08-14T18:31:20.713Z,57.75
2022-08-14T18:33:58.494Z,56.66
2022-08-14T18:36:54.394Z,53.98
2022-08-14T18:39:34.575Z,55.88
2022-08-14T18:42:23.931Z,56.97
2022-08-14T18:44:58.659Z,56.89
2022-08-14T18:47:28.809Z,57.47
2022-08-14T18:50:01.098Z,58.79
2022-08-14T18:52:39.833Z,59.52
2022-08-14T18:55:18.370Z,59.02
2022-08-14T18:57:58.018Z,58.36
2022-08-14T19:00:39.917Z,57.73
2022-08-14T19:03:11.035Z,57.94
2022-08-14T19:05:40.851Z,57.62
2022-08-14T19:08:17.646Z,59.29
2022-08-14T19:10:49.272Z,59.95
2022-08-14T19:13:48.504Z,59.14
2022-08-14T19:16:23.604Z,58.27
2022-08-14T19:19:00.566Z,58.06
2022-08-14T19:21:27.312Z,56.92
2022-08-14T19:24:27.278Z,57.40
2022-08-14T19:27:23.531Z,56.99
2022-08-14T19:30:09.831Z,58.60
2022-08-14T19:32:50.579Z,59.30
2022-08-14T19:35:24.383Z,59.90
2022-08-14T19:37:56.153Z,60.49
2022-08-14T19:40:35.245Z,61.15
2022-08-14T19:43:06.621Z,60.80
2022-08-14T19:45:36.968Z,60.76
2022-08-14T19:48:12.126Z,61.24
2022-08-14T19:50:40.583Z,60.95
2022-08-14T19:53:17.113Z,62.15
2022-08-14T19:55:59.653Z,61.23
2022-08-14T19:58:55.116Z,62.35
2022-08-14T20:01:37.142Z,63.03
2022-08-14T20:04:45.205Z,63.52
2022-08-14T20:07:09.232Z,64.08
2022-08-14T20:11:04.631Z,65.04
2022-08-14T20:12:36.618Z,63.06
2022-08-14T20:15:21.019Z,63.51
2022-08-14T20:17:54.181Z,64.67
2022-08-14T20:20:30.925Z,65.29
2022-08-14T20:23:11.955Z,64.53
2022-08-14T20:25:45.264Z,65.45
2022-08-14T20:28:31.692Z,65.94
2022-08-14T20:31:15.884Z,66.30
2022-08-14T20:34:19.031Z,66.53
2022-08-14T20:37:22.429Z,66.65
2022-08-14T20:39:54.541Z,66.93
2022-08-14T20:42:43.339Z,66.58
2022-08-14T20:45:23.666Z,67.07
2022-08-14T20:48:01.041Z,67.56
2022-08-14T20:50:30.035Z,67.80
2022-08-14T20:52:58.378Z,67.75
2022-08-14T20:55:34.944Z,67.17
2022-08-14T20:58:09.813Z,67.93
2022-08-14T21:01:13.028Z,67.40
2022-08-14T21:03:57.046Z,67.57
2022-08-14T21:07:23.035Z,68.44
2022-08-14T21:09:43.927Z,68.62
2022-08-14T21:12:34.252Z,68.91
2022-08-14T21:15:00.189Z,68.92
2022-08-14T21:17:27.442Z,69.31
2022-08-14T21:19:54.069Z,69.03
2022-08-14T21:22:20.737Z,69.52
2022-08-14T21:24:48.358Z,69.41
2022-08-14T21:27:22.766Z,69.63
2022-08-14T21:29:55.410Z,70.28
2022-08-14T21:32:34.961Z,71.01
2022-08-14T21:35:08.963Z,70.83
2022-08-14T21:37:47.795Z,70.33
2022-08-14T21:40:39.862Z,70.14
2022-08-14T21:43:04.233Z,69.41
2022-08-14T21:45:35.236Z,70.12
2022-08-14T21:48:09.247Z,70.29
2022-08-14T21:51:01.677Z,70.37
2022-08-14T21:53:31.177Z,70.18
2022-08-14T21:55:58.036Z,69.86
2022-08-14T21:58:52.016Z,69.94
2022-08-14T22:01:12.468Z,69.35
2022-08-14T22:03:45.175Z,69.81
2022-08-14T22:06:20.947Z,69.84
2022-08-14T22:08:55.676Z,68.84
2022-08-14T22:11:22.687Z,69.83
2022-08-14T22:13:50.812Z,69.83
2022-08-14T22:17:01.779Z,70.41
2022-08-14T22:19:07.006Z,70.14
2022-08-14T22:21:38.269Z,71.46
2022-08-14T22:24:12.398Z,71.92
2022-08-14T22:27:01.422Z,71.23
2022-08-14T22:29:28.772Z,70.82
2022-08-14T22:31:55.677Z,70.67
2022-08-14T22:34:23.101Z,70.87
2022-08-14T22:36:50.778Z,69.61
2022-08-14T22:40:51.072Z,70.23
2022-08-14T22:42:20.855Z,71.34
2022-08-14T22:44:48.535Z,71.16
2022-08-14T22:47:15.175Z,72.19
2022-08-14T22:50:31.158Z,71.77
2022-08-14T22:52:33.126Z,71.73
2022-08-14T22:55:05.867Z,71.45
2022-08-14T22:57:37.181Z,71.82
2022-08-14T23:00:08.645Z,71.95
2022-08-14T23:02:35.184Z,73.55
2022-08-14T23:05:04.562Z,73.33
2022-08-14T23:08:56.776Z,73.87
2022-08-14T23:10:33.035Z,74.39
2022-08-14T23:13:02.167Z,74.62
2022-08-14T23:15:30.103Z,76.09
2022-08-14T23:17:58.272Z,76.14
2022-08-14T23:20:29.536Z,75.50
2022-08-14T23:22:57.094Z,75.96
2022-08-14T23:25:56.749Z,75.75
2022-08-14T23:28:33.576Z,76.08
2022-08-14T23:31:05.646Z,76.43
2022-08-14T23:33:33.088Z,77.51
2022-08-14T23:36:00.122Z,76.37
2022-08-14T23:38:30.876Z,76.56
2022-08-14T23:41:00.832Z,75.19
2022-08-14T23:43:31.357Z,77.43
2022-08-14T23:45:58.786Z,77.51
2022-08-14T23:48:28.182Z,78.37
2022-08-14T23:50:55.684Z,78.24
2022-08-14T23:53:48.568Z,78.49
2022-08-14T23:56:30.200Z,78.06
2022-08-14T23:58:58.594Z,79.01
